Time;durP1;ratioP1;P1;durP2;ratioP2;P2;SDS_P1;SDS_P2;PMS_P1;PMS_P2;Temp;Humidity;BMP_temperature;BMP_pressure;BME280_temperature;BME280_humidity;BME280_pressure;Samples;Min_cycle;Max_cycle;Signal;HPM_P1;HPM_P2
2022/10/06 00:01:41;;;;;;;16.20;5.60;;;;;;;10.14;59.27;96705.44;4962432;28;20034;-84
2022/10/06 00:04:07;;;;;;;10.50;4.95;;;;;;;10.12;59.60;96699.38;4978685;28;20037;-84
2022/10/06 00:06:32;;;;;;;15.00;4.82;;;;;;;10.10;59.57;96704.88;5002790;28;20026;-84
2022/10/06 00:08:58;;;;;;;7.93;4.93;;;;;;;10.09;60.03;96715.75;5007599;28;20417;-84
2022/10/06 00:11:23;;;;;;;7.82;4.53;;;;;;;10.04;60.21;96701.94;5006921;28;20025;-83
2022/10/06 00:13:49;;;;;;;6.68;4.03;;;;;;;10.00;60.77;96712.06;4989856;28;20030;-83
2022/10/06 00:16:16;;;;;;;8.27;4.20;;;;;;;10.06;60.25;96702.63;4973063;28;20084;-83
2022/10/06 00:18:42;;;;;;;7.20;3.70;;;;;;;10.02;58.95;96700.25;4989349;28;20121;-84
2022/10/06 00:21:07;;;;;;;7.55;3.30;;;;;;;9.94;59.03;96696.56;4989261;28;20105;-84
2022/10/06 00:23:33;;;;;;;6.80;3.50;;;;;;;9.94;58.76;96697.44;4972371;28;20092;-84
2022/10/06 00:25:58;;;;;;;6.35;3.60;;;;;;;9.91;59.06;96702.22;4990047;28;20116;-83
2022/10/06 00:28:24;;;;;;;9.52;3.53;;;;;;;9.81;59.45;96703.06;4956577;28;20026;-83
2022/10/06 00:30:52;;;;;;;11.60;4.30;;;;;;;9.80;58.76;96695.16;4989351;28;20034;-84
2022/10/06 00:33:17;;;;;;;7.13;3.60;;;;;;;9.79;58.51;96694.31;4988969;28;20071;-84
2022/10/06 00:35:43;;;;;;;6.38;3.90;;;;;;;9.75;59.39;96691.06;5006779;28;20022;-84
2022/10/06 00:38:12;;;;;;;5.75;3.53;;;;;;;9.68;59.81;96691.78;4973307;28;20068;-84
2022/10/06 00:40:48;;;;;;;11.93;4.00;;;;;;;9.59;59.64;96690.78;4969013;28;20551;-84
2022/10/06 00:43:44;;;;;;;6.68;4.10;;;;;;;9.67;60.29;96680.22;4971270;28;20026;-85
2022/10/06 00:46:17;;;;;;;7.22;3.97;;;;;;;9.67;60.47;96684.72;4994003;28;20485;-83
2022/10/06 00:48:43;;;;;;;8.57;3.85;;;;;;;9.67;61.10;96676.69;4989658;28;20034;-84
2022/10/06 00:51:08;;;;;;;9.02;4.13;;;;;;;9.66;61.43;96672.34;4969258;28;20592;-83
2022/10/06 00:53:34;;;;;;;5.20;3.50;;;;;;;9.66;61.36;96675.00;4988137;28;20030;-83
2022/10/06 00:55:59;;;;;;;9.65;3.40;;;;;;;9.63;59.60;96673.44;4989080;28;20393;-84
2022/10/06 00:58:25;;;;;;;4.10;2.65;;;;;;;9.59;59.42;96670.19;4988678;28;20037;-84
2022/10/06 01:00:53;;;;;;;4.88;3.22;;;;;;;9.50;59.62;96663.00;4989193;28;20026;-83
2022/10/06 01:03:30;;;;;;;8.15;3.13;;;;;;;9.41;59.37;96667.38;4972539;28;20384;-81
2022/10/06 01:05:55;;;;;;;5.38;2.95;;;;;;;9.32;59.81;96660.19;4973239;28;20743;-82
2022/10/06 01:08:21;;;;;;;7.18;3.25;;;;;;;9.26;60.38;96653.53;4972677;28;20030;-84
2022/10/06 01:10:46;;;;;;;8.15;3.50;;;;;;;9.21;60.92;96653.09;4988683;28;20034;-82
2022/10/06 01:13:12;;;;;;;5.40;3.28;;;;;;;9.22;60.76;96658.31;4988957;28;20046;-82
2022/10/06 01:15:39;;;;;;;6.05;2.97;;;;;;;9.21;61.08;96656.63;4987726;28;20432;-82
2022/10/06 01:18:12;;;;;;;7.78;3.40;;;;;;;9.15;60.58;96652.69;4972790;28;20030;-84
2022/10/06 01:20:38;;;;;;;6.60;4.03;;;;;;;9.11;61.06;96647.72;4957259;28;20041;-83
2022/10/06 01:23:05;;;;;;;7.55;4.38;;;;;;;9.08;61.59;96642.66;4971723;28;20034;-84
2022/10/06 01:25:31;;;;;;;8.82;4.30;;;;;;;9.08;61.91;96648.84;4972357;28;20029;-83
2022/10/06 01:27:56;;;;;;;9.10;5.03;;;;;;;9.07;62.00;96651.66;4972705;28;20487;-84
2022/10/06 01:30:35;;;;;;;9.23;4.78;;;;;;;9.02;61.94;96650.25;4968936;28;20516;-84
2022/10/06 01:33:00;;;;;;;7.95;3.72;;;;;;;9.07;63.36;96649.00;4969386;28;20029;-84
2022/10/06 01:35:26;;;;;;;6.15;4.00;;;;;;;9.14;63.50;96639.44;4973365;28;20076;-84
2022/10/06 01:37:53;;;;;;;8.88;4.00;;;;;;;9.21;63.22;96640.56;4987984;28;20042;-84
2022/10/06 01:40:19;;;;;;;8.15;3.50;;;;;;;9.25;63.54;96644.66;4989307;28;20032;-83
2022/10/06 01:42:44;;;;;;;6.43;3.45;;;;;;;9.25;63.30;96641.97;4987432;28;20037;-83
2022/10/06 01:45:09;;;;;;;7.22;3.20;;;;;;;9.26;63.72;96637.47;4988378;28;20053;-83
2022/10/06 01:47:35;;;;;;;5.95;2.85;;;;;;;9.20;63.61;96633.53;4972419;28;20106;-82
2022/10/06 01:50:00;;;;;;;5.90;2.97;;;;;;;9.21;62.97;96635.22;4987973;28;20022;-83
2022/10/06 01:52:26;;;;;;;5.38;3.30;;;;;;;9.23;62.43;96643.97;4972564;28;20029;-83
2022/10/06 01:54:52;;;;;;;6.95;3.30;;;;;;;9.24;61.66;96640.28;4988066;28;20033;-83
2022/10/06 01:57:18;;;;;;;5.93;3.30;;;;;;;9.23;61.21;96643.09;4988702;28;20054;-82
2022/10/06 01:59:43;;;;;;;4.70;3.22;;;;;;;9.18;60.72;96640.00;5005644;28;20411;-82
2022/10/06 02:02:09;;;;;;;6.38;3.40;;;;;;;9.11;60.92;96645.03;4987852;28;20473;-83
2022/10/06 02:04:34;;;;;;;6.32;3.72;;;;;;;9.03;61.14;96643.06;4972067;28;20377;-83
2022/10/06 02:06:59;;;;;;;7.85;3.72;;;;;;;8.96;61.38;96641.94;5006311;28;20073;-83
2022/10/06 02:09:25;;;;;;;5.75;3.50;;;;;;;8.89;61.21;96644.31;4988675;28;20137;-83
2022/10/06 02:11:50;;;;;;;5.63;3.75;;;;;;;8.84;61.44;96643.84;4970817;28;20034;-83
2022/10/06 02:14:16;;;;;;;5.10;3.05;;;;;;;8.77;62.04;96631.03;4988921;28;20084;-83
2022/10/06 02:16:42;;;;;;;5.65;3.33;;;;;;;8.73;61.51;96634.97;4991170;28;20026;-83
2022/10/06 02:19:08;;;;;;;8.10;3.58;;;;;;;8.71;61.49;96633.38;5009792;28;20408;-82
2022/10/06 02:21:34;;;;;;;9.23;3.90;;;;;;;8.63;61.65;96629.59;4971543;28;20025;-82
2022/10/06 02:23:59;;;;;;;4.75;2.85;;;;;;;8.60;62.06;96642.38;4956850;28;20039;-83
2022/10/06 02:26:25;;;;;;;4.05;2.83;;;;;;;8.55;62.15;96645.44;4955729;28;20031;-83
2022/10/06 02:28:50;;;;;;;9.05;3.10;;;;;;;8.50;61.71;96643.16;4989698;28;20045;-83
2022/10/06 02:31:16;;;;;;;5.78;3.15;;;;;;;8.50;61.36;96642.28;4985653;28;20025;-83
2022/10/06 02:33:41;;;;;;;6.05;3.40;;;;;;;8.39;61.98;96646.75;4971571;28;20122;-83
2022/10/06 02:36:07;;;;;;;9.90;3.55;;;;;;;8.43;61.85;96647.31;4975983;28;20025;-83
2022/10/06 02:38:33;;;;;;;5.25;3.13;;;;;;;8.40;59.87;96642.25;4974166;28;20052;-83
2022/10/06 02:40:59;;;;;;;6.28;3.60;;;;;;;8.37;60.11;96647.84;4975527;28;20080;-84
2022/10/06 02:43:28;;;;;;;8.07;3.55;;;;;;;8.35;59.59;96649.84;4991550;28;20037;-83
2022/10/06 02:46:09;;;;;;;8.25;3.13;;;;;;;8.32;60.85;96652.78;4991508;28;20049;-83
2022/10/06 02:48:34;;;;;;;5.97;3.25;;;;;;;8.33;60.59;96651.78;4992480;28;20026;-83
2022/10/06 02:51:06;;;;;;;8.07;3.42;;;;;;;8.31;60.83;96651.91;4990815;28;20032;-84
2022/10/06 02:53:33;;;;;;;5.40;3.27;;;;;;;8.31;61.03;96648.38;4976882;28;20022;-83
2022/10/06 02:56:04;;;;;;;3.95;2.92;;;;;;;8.29;61.44;96645.84;5008157;28;20026;-83
2022/10/06 02:58:30;;;;;;;6.97;3.45;;;;;;;8.27;61.49;96656.69;5009332;28;20034;-83
2022/10/06 03:01:09;;;;;;;9.20;3.80;;;;;;;8.27;61.90;96651.34;4971136;28;20398;-84
2022/10/06 03:03:35;;;;;;;6.93;3.40;;;;;;;8.23;62.36;96644.56;4987801;28;20167;-84
2022/10/06 03:06:00;;;;;;;9.80;4.00;;;;;;;8.28;62.06;96647.69;4956235;28;20034;-83
2022/10/06 03:08:26;;;;;;;6.75;3.78;;;;;;;8.32;61.62;96644.75;4988435;28;20053;-83
2022/10/06 03:10:51;;;;;;;5.68;3.35;;;;;;;8.31;61.03;96645.72;4989867;28;20022;-84
2022/10/06 03:13:16;;;;;;;6.50;2.80;;;;;;;8.32;61.06;96644.75;4955108;28;20041;-83
2022/10/06 03:15:42;;;;;;;8.85;3.45;;;;;;;8.33;60.82;96651.78;4977854;28;20041;-83
2022/10/06 03:18:07;;;;;;;8.32;3.40;;;;;;;8.28;61.17;96650.38;4990424;28;20026;-83
2022/10/06 03:20:33;;;;;;;6.18;3.33;;;;;;;8.25;61.65;96649.78;4974491;28;20022;-85
2022/10/06 03:22:58;;;;;;;6.03;3.65;;;;;;;8.27;61.77;96654.00;4974716;28;20677;-85
2022/10/06 03:25:24;;;;;;;8.77;3.45;;;;;;;8.20;61.08;96647.50;4973619;28;20437;-83
2022/10/06 03:27:50;;;;;;;8.90;3.55;;;;;;;8.18;60.62;96649.47;4990253;28;20087;-85
2022/10/06 03:30:15;;;;;;;9.25;3.38;;;;;;;8.14;61.56;96645.38;4957323;28;20026;-83
2022/10/06 03:32:41;;;;;;;7.88;3.35;;;;;;;8.14;61.67;96656.06;4975209;28;20022;-83
2022/10/06 03:35:07;;;;;;;5.28;3.42;;;;;;;8.07;61.37;96646.84;4989545;28;20041;-84
2022/10/06 03:37:32;;;;;;;8.63;4.35;;;;;;;8.03;60.98;96648.94;4974636;28;20457;-85
2022/10/06 03:39:59;;;;;;;6.22;3.53;;;;;;;8.08;60.79;96651.22;4990154;28;20037;-82
2022/10/06 03:42:24;;;;;;;5.82;3.60;;;;;;;8.07;61.15;96649.53;4990811;28;20604;-84
2022/10/06 03:44:49;;;;;;;10.93;4.72;;;;;;;8.03;61.42;96635.56;4988884;28;20038;-85
2022/10/06 03:47:15;;;;;;;5.03;3.45;;;;;;;7.98;61.68;96638.66;5007085;28;20406;-84
2022/10/06 03:49:40;;;;;;;7.00;3.63;;;;;;;7.99;61.83;96637.69;4990295;28;20030;-83
2022/10/06 03:52:06;;;;;;;8.32;3.92;;;;;;;8.00;61.55;96642.03;4989848;28;20030;-83
2022/10/06 03:54:32;;;;;;;9.10;3.78;;;;;;;7.98;61.62;96637.81;4991062;28;20030;-83
2022/10/06 03:56:58;;;;;;;7.30;3.47;;;;;;;7.94;61.86;96644.38;4989876;28;20089;-82
2022/10/06 03:59:23;;;;;;;5.45;3.20;;;;;;;7.85;62.33;96643.34;4973440;28;20029;-83
2022/10/06 04:01:49;;;;;;;5.55;3.30;;;;;;;7.85;62.35;96644.19;4989490;28;20033;-83
2022/10/06 04:04:14;;;;;;;9.07;3.50;;;;;;;7.87;61.85;96644.06;5007783;28;20025;-82
2022/10/06 04:06:41;;;;;;;8.77;3.65;;;;;;;7.88;61.45;96638.56;4989755;28;20038;-85
2022/10/06 04:09:09;;;;;;;4.93;3.45;;;;;;;7.86;61.64;96637.03;4972976;28;20030;-83
2022/10/06 04:11:36;;;;;;;4.97;3.13;;;;;;;7.89;61.07;96637.63;4976962;28;20056;-83
2022/10/06 04:14:03;;;;;;;5.85;3.63;;;;;;;7.87;61.45;96641.38;4991538;28;20033;-84
2022/10/06 04:16:30;;;;;;;6.50;3.88;;;;;;;7.92;61.27;96641.84;4954682;28;20061;-84
2022/10/06 04:18:59;;;;;;;8.57;3.45;;;;;;;7.94;60.63;96639.91;4972851;28;20037;-83
2022/10/06 04:21:25;;;;;;;5.55;3.30;;;;;;;7.91;60.10;96640.97;4989194;28;20030;-83
2022/10/06 04:23:54;;;;;;;5.57;3.45;;;;;;;7.90;60.97;96636.63;4971758;28;20034;-82
2022/10/06 04:26:20;;;;;;;5.18;3.10;;;;;;;7.83;61.64;96642.63;4989052;28;20061;-81
2022/10/06 04:28:46;;;;;;;7.13;3.50;;;;;;;7.87;62.56;96636.03;4973537;28;20515;-82
2022/10/06 04:31:23;;;;;;;9.93;3.72;;;;;;;7.85;62.85;96643.34;5006269;28;20022;-82
2022/10/06 04:33:52;;;;;;;9.73;4.03;;;;;;;7.95;62.80;96644.25;4973495;28;20515;-82
2022/10/06 04:36:23;;;;;;;7.15;4.57;;;;;;;7.99;62.22;96645.69;4986921;28;20032;-80
2022/10/06 04:38:57;;;;;;;13.65;4.30;;;;;;;7.99;61.64;96643.03;4957006;28;20044;-79
2022/10/06 04:41:27;;;;;;;9.93;4.82;;;;;;;7.98;61.40;96656.53;4942593;28;20033;-80
2022/10/06 04:43:52;;;;;;;8.55;4.68;;;;;;;7.97;61.78;96650.31;4952798;28;20046;-79
2022/10/06 04:46:19;;;;;;;8.82;5.03;;;;;;;7.95;61.90;96649.59;4971508;28;20038;-80
2022/10/06 04:48:44;;;;;;;13.75;5.35;;;;;;;7.96;62.24;96653.97;4953660;28;20556;-91
2022/10/06 04:51:14;;;;;;;9.65;5.03;;;;;;;8.01;62.69;96664.28;4981304;28;20042;-84
2022/10/06 04:53:40;;;;;;;11.95;4.68;;;;;;;8.12;62.35;96650.00;5007375;28;20045;-85
2022/10/06 04:56:06;;;;;;;8.45;4.07;;;;;;;8.19;62.16;96658.34;4989675;28;20080;-87
2022/10/06 04:58:33;;;;;;;7.90;4.53;;;;;;;8.22;60.79;96658.91;4991119;28;20044;-82
2022/10/06 05:00:59;;;;;;;7.18;4.40;;;;;;;8.25;60.90;96661.31;5000447;28;20057;-81
2022/10/06 05:03:25;;;;;;;11.65;4.13;;;;;;;8.27;60.56;96664.69;4988570;28;20125;-84
2022/10/06 05:05:50;;;;;;;9.98;4.20;;;;;;;8.26;60.82;96664.81;4982298;28;20034;-82
2022/10/06 05:08:16;;;;;;;10.45;4.55;;;;;;;8.24;60.26;96659.63;4987398;28;20026;-81
2022/10/06 05:10:41;;;;;;;13.23;4.43;;;;;;;8.25;60.48;96655.13;4986481;28;20022;-81
2022/10/06 05:13:10;;;;;;;10.85;4.20;;;;;;;8.24;60.25;96654.28;4953332;28;20022;-83
2022/10/06 05:15:36;;;;;;;8.15;4.45;;;;;;;8.29;60.53;96660.06;4969243;28;20446;-81
2022/10/06 05:18:02;;;;;;;13.10;4.68;;;;;;;8.37;60.85;96654.06;4969029;28;20109;-82
2022/10/06 05:20:27;;;;;;;11.23;5.85;;;;;;;8.43;61.25;96651.84;4969328;28;20030;-83
2022/10/06 05:22:52;;;;;;;17.92;6.13;;;;;;;8.56;60.82;96657.00;4952488;28;20026;-82
2022/10/06 05:25:18;;;;;;;15.50;5.57;;;;;;;8.62;60.08;96654.63;4987188;28;20026;-83
2022/10/06 05:27:43;;;;;;;11.75;5.57;;;;;;;8.74;59.96;96652.69;4985727;28;20026;-82
2022/10/06 05:30:09;;;;;;;11.88;6.40;;;;;;;8.85;59.88;96651.75;4986844;28;20038;-82
2022/10/06 05:32:35;;;;;;;13.60;5.32;;;;;;;8.99;59.61;96649.69;4986122;28;20105;-82
2022/10/06 05:35:01;;;;;;;22.98;6.55;;;;;;;9.07;60.45;96655.19;4953126;28;20034;-82
2022/10/06 05:37:26;;;;;;;12.90;6.18;;;;;;;9.12;60.87;96657.47;4986414;28;20030;-82
2022/10/06 05:39:51;;;;;;;27.98;6.55;;;;;;;9.23;60.99;96654.66;4986603;28;20115;-82
2022/10/06 05:42:17;;;;;;;15.25;6.03;;;;;;;9.27;61.64;96665.91;4969354;28;20030;-83
2022/10/06 05:44:42;;;;;;;14.80;6.03;;;;;;;9.51;61.03;96657.50;4969664;28;20042;-82
2022/10/06 05:47:08;;;;;;;16.38;7.35;;;;;;;9.58;61.36;96662.28;4953525;28;20582;-82
2022/10/06 05:49:33;;;;;;;15.32;5.25;;;;;;;9.74;61.01;96667.94;4969000;28;20018;-83
2022/10/06 05:51:59;;;;;;;8.40;4.90;;;;;;;9.80;60.76;96671.06;4973297;28;20226;-83
2022/10/06 05:54:24;;;;;;;13.95;5.53;;;;;;;9.96;60.28;96673.97;4991047;28;20410;-82
2022/10/06 05:56:49;;;;;;;13.02;4.97;;;;;;;9.99;60.09;96671.06;4990368;28;20150;-82
2022/10/06 05:59:15;;;;;;;10.18;4.53;;;;;;;10.05;59.99;96680.34;4989779;28;20038;-82
2022/10/06 06:01:41;;;;;;;11.40;4.65;;;;;;;10.11;60.78;96678.91;4990046;28;20381;-83
2022/10/06 06:04:08;;;;;;;18.30;5.68;;;;;;;10.24;60.26;96684.81;4957104;28;20029;-82
2022/10/06 06:06:39;;;;;;;12.45;4.88;;;;;;;10.39;60.00;96682.53;4955625;28;20081;-82
2022/10/06 06:09:06;;;;;;;19.67;4.85;;;;;;;10.38;59.66;96682.69;4973019;28;20032;-82
2022/10/06 06:11:32;;;;;;;11.25;4.40;;;;;;;10.44;59.59;96682.09;4955709;28;20056;-82
2022/10/06 06:14:02;;;;;;;12.00;4.07;;;;;;;10.37;59.56;96673.78;4956510;28;20425;-82
2022/10/06 06:16:29;;;;;;;18.17;4.60;;;;;;;10.53;59.44;96676.91;4972638;28;20097;-82
2022/10/06 06:18:55;;;;;;;12.70;4.93;;;;;;;10.57;59.11;96683.66;4972344;28;20062;-82
2022/10/06 06:21:20;;;;;;;14.48;4.35;;;;;;;10.50;59.57;96676.19;4989954;28;20453;-82
2022/10/06 06:23:46;;;;;;;9.75;4.45;;;;;;;10.68;59.60;96683.47;4989290;28;20026;-83
2022/10/06 06:26:23;;;;;;;11.52;4.03;;;;;;;10.80;59.11;96683.28;4972810;28;20127;-83
2022/10/06 06:28:49;;;;;;;10.63;4.47;;;;;;;11.05;58.47;96678.22;4956887;28;20031;-81
2022/10/06 06:31:25;;;;;;;25.90;15.50;;;;;;;11.25;58.53;96682.47;4956643;28;20030;-82
2022/10/06 06:33:52;;;;;;;16.67;7.63;;;;;;;11.45;58.00;96684.19;4972125;28;20041;-82
2022/10/06 06:36:23;;;;;;;16.30;5.47;;;;;;;11.52;57.91;96688.00;4971440;28;20053;-82
2022/10/06 06:38:50;;;;;;;16.15;5.50;;;;;;;11.57;57.62;96677.63;4972683;28;20057;-83
2022/10/06 06:41:17;;;;;;;18.48;4.90;;;;;;;11.75;57.25;96680.31;4988552;28;20022;-82
2022/10/06 06:43:44;;;;;;;21.02;6.45;;;;;;;11.80;56.77;96681.72;4956041;28;20030;-82
2022/10/06 06:46:10;;;;;;;13.20;5.55;;;;;;;11.84;56.98;96685.75;4971227;28;20066;-83
2022/10/06 06:48:36;;;;;;;7.50;4.35;;;;;;;11.98;56.78;96682.53;4955632;28;20027;-82
2022/10/06 06:51:02;;;;;;;8.48;4.50;;;;;;;12.17;56.43;96685.25;4971468;28;20038;-83
2022/10/06 06:53:28;;;;;;;7.10;4.22;;;;;;;12.34;55.92;96686.19;4955276;28;20181;-83
2022/10/06 06:55:53;;;;;;;7.47;4.50;;;;;;;12.42;55.53;96667.44;4989534;28;20034;-82
2022/10/06 06:58:19;;;;;;;9.60;4.65;;;;;;;12.50;55.23;96672.00;4970704;28;20437;-83
2022/10/06 07:00:44;;;;;;;8.95;5.03;;;;;;;12.64;55.26;96664.38;4988805;28;20386;-82
2022/10/06 07:03:14;;;;;;;10.07;5.10;;;;;;;12.81;54.55;96670.66;4988276;28;20046;-81
2022/10/06 07:05:39;;;;;;;10.77;4.72;;;;;;;12.90;54.47;96664.31;4971538;28;20117;-82
2022/10/06 07:08:08;;;;;;;8.80;4.95;;;;;;;12.99;54.19;96657.13;4988578;28;20022;-83
2022/10/06 07:10:35;;;;;;;10.93;5.30;;;;;;;13.12;53.44;96653.97;4955925;28;20030;-83
2022/10/06 07:13:00;;;;;;;10.63;5.35;;;;;;;13.12;53.36;96658.50;4971861;28;20033;-83
2022/10/06 07:26:22;;;;;;;10.30;6.05;;;;;;;13.26;54.07;96657.03;4960897;28;20053;-82
2022/10/06 07:28:48;;;;;;;11.18;6.20;;;;;;;13.26;53.63;96651.66;4972482;28;20442;-83
2022/10/06 07:31:16;;;;;;;8.55;5.63;;;;;;;13.19;53.75;96654.16;4971611;28;20030;-82
2022/10/06 07:33:42;;;;;;;13.68;6.10;;;;;;;13.13;54.20;96652.97;4954357;28;20026;-83
2022/10/06 07:36:07;;;;;;;7.75;5.45;;;;;;;13.09;54.40;96651.63;4971102;28;20527;-82
2022/10/06 07:38:33;;;;;;;11.45;6.38;;;;;;;12.76;55.12;96649.63;4970556;28;20022;-81
2022/10/06 07:40:58;;;;;;;10.93;6.45;;;;;;;12.68;55.89;96642.34;4938181;28;20030;-81
2022/10/06 07:43:24;;;;;;;11.00;6.78;;;;;;;12.67;56.30;96645.19;4988492;28;20054;-81
2022/10/06 07:45:50;;;;;;;11.75;6.40;;;;;;;12.96;55.93;96647.50;4969451;28;20050;-82
2022/10/06 07:48:19;;;;;;;12.85;6.05;;;;;;;13.23;55.65;96650.97;4988707;28;20030;-81
2022/10/06 07:50:46;;;;;;;11.45;6.60;;;;;;;13.07;55.37;96646.34;4953521;28;20022;-82
2022/10/06 07:53:12;;;;;;;11.52;6.40;;;;;;;13.24;54.51;96654.50;4971022;28;20120;-81
2022/10/06 07:55:38;;;;;;;12.52;6.80;;;;;;;13.17;55.12;96646.22;4987425;28;20039;-83
2022/10/06 07:58:17;;;;;;;12.02;6.38;;;;;;;13.29;54.84;96645.94;4970378;28;20113;-81
2022/10/06 08:00:43;;;;;;;9.50;5.97;;;;;;;13.47;54.29;96646.66;4938811;28;20142;-81
2022/10/06 08:03:09;;;;;;;15.57;7.30;;;;;;;13.77;54.02;96653.44;4969882;28;20113;-82
2022/10/06 08:05:35;;;;;;;15.98;6.72;;;;;;;13.98;53.03;96644.06;4988327;28;20057;-79
2022/10/06 08:08:00;;;;;;;20.00;6.60;;;;;;;14.08;53.27;96648.25;4953200;28;20041;-79
2022/10/06 08:10:26;;;;;;;13.23;7.18;;;;;;;14.07;53.23;96643.03;4987977;28;20068;-78
2022/10/06 08:12:51;;;;;;;23.27;7.40;;;;;;;14.16;53.10;96641.16;4986186;28;20034;-77
2022/10/06 08:15:17;;;;;;;10.70;5.78;;;;;;;14.00;52.59;96642.00;4987565;28;20026;-78
2022/10/06 08:17:42;;;;;;;20.67;6.30;;;;;;;14.24;52.28;96640.31;4988464;28;20131;-79
2022/10/06 08:20:10;;;;;;;10.90;6.63;;;;;;;14.50;51.74;96636.56;4953283;28;20037;-79
2022/10/06 08:22:37;;;;;;;13.07;5.55;;;;;;;14.54;51.61;96638.72;4954545;28;20400;-79
2022/10/06 08:25:03;;;;;;;11.60;6.18;;;;;;;14.71;51.27;96636.00;4952944;28;20037;-81
2022/10/06 08:27:29;;;;;;;12.23;5.53;;;;;;;14.85;49.97;96626.34;4970815;28;20026;-84
2022/10/06 08:29:54;;;;;;;15.30;5.50;;;;;;;14.76;50.68;96630.06;4953232;28;20564;-81
2022/10/06 08:32:21;;;;;;;10.32;4.93;;;;;;;14.75;50.76;96621.13;4970410;28;20472;-82
2022/10/06 08:34:47;;;;;;;13.93;5.63;;;;;;;14.92;50.81;96618.41;4953552;28;20073;-81
2022/10/06 08:37:13;;;;;;;10.77;5.32;;;;;;;14.90;50.64;96620.41;4969308;28;20022;-83
2022/10/06 08:39:41;;;;;;;10.65;5.53;;;;;;;15.13;50.06;96625.06;4954000;28;20030;-82
2022/10/06 08:42:12;;;;;;;13.05;5.22;;;;;;;15.05;50.42;96624.09;4986141;28;20081;-81
2022/10/06 08:44:38;;;;;;;11.50;5.18;;;;;;;15.04;50.18;96614.28;4938028;28;20145;-80
2022/10/06 08:47:12;;;;;;;8.95;5.10;;;;;;;14.88;50.37;96612.50;4952481;28;20117;-80
2022/10/06 08:49:39;;;;;;;9.45;4.65;;;;;;;14.92;49.77;96616.53;4956070;28;20030;-81
2022/10/06 08:52:34;;;;;;;14.43;5.32;;;;;;;14.90;50.90;96609.63;4952655;28;20030;-82
2022/10/06 08:55:06;;;;;;;8.90;4.25;;;;;;;14.78;50.51;96615.38;4951605;28;20030;-82
2022/10/06 08:57:37;;;;;;;6.63;3.77;;;;;;;14.63;50.42;96615.28;4970078;28;20026;-80
2022/10/06 09:00:02;;;;;;;7.32;3.15;;;;;;;15.02;49.46;96618.19;4968449;28;20368;-80
2022/10/06 09:02:31;;;;;;;7.93;3.40;;;;;;;15.23;48.11;96611.31;4969626;28;20403;-80
2022/10/06 09:04:57;;;;;;;7.25;3.50;;;;;;;15.40;48.83;96617.47;4952930;28;20026;-82
2022/10/06 09:07:44;;;;;;;5.03;3.15;;;;;;;15.37;49.96;96612.41;4953019;28;20018;-80
2022/10/06 09:10:33;;;;;;;8.57;3.67;;;;;;;15.50;49.83;96609.97;4972438;28;20035;-82
2022/10/06 09:13:02;;;;;;;6.45;3.65;;;;;;;15.55;50.48;96614.84;4955517;28;20038;-81
2022/10/06 09:15:27;;;;;;;7.30;3.85;;;;;;;15.60;47.35;96606.19;4953863;28;20417;-81
2022/10/06 09:17:56;;;;;;;13.98;3.80;;;;;;;15.31;49.26;96603.19;4985996;28;20027;-81
2022/10/06 09:20:45;;;;;;;7.07;4.03;;;;;;;15.15;48.95;96596.84;4969115;28;20101;-82
2022/10/06 09:23:15;;;;;;;8.23;3.78;;;;;;;15.68;48.69;96601.59;4971920;28;20034;-80
2022/10/06 09:25:41;;;;;;;5.45;3.50;;;;;;;15.68;47.82;96598.03;4954497;28;20102;-81
2022/10/06 09:28:10;;;;;;;6.40;3.55;;;;;;;15.69;48.83;96595.13;4957499;28;20029;-81
2022/10/06 09:30:36;;;;;;;9.55;3.50;;;;;;;15.98;48.92;96592.72;4957102;28;20038;-81
2022/10/06 09:33:02;;;;;;;10.00;3.65;;;;;;;16.06;48.83;96587.25;4973162;28;20022;-82
2022/10/06 09:35:29;;;;;;;7.00;3.72;;;;;;;15.92;47.37;96580.75;4956465;28;20050;-81
2022/10/06 09:37:56;;;;;;;5.43;3.30;;;;;;;15.94;47.82;96575.97;4956860;28;20042;-82
2022/10/06 09:40:43;;;;;;;6.20;3.38;;;;;;;15.88;46.28;96578.59;4957026;28;20512;-82
2022/10/06 09:43:27;;;;;;;4.25;2.78;;;;;;;15.56;47.20;96575.97;4972817;28;20023;-81
2022/10/06 09:45:54;;;;;;;3.67;2.33;;;;;;;15.34;46.36;96578.50;4972928;28;20437;-81
2022/10/06 09:48:25;;;;;;;4.68;2.58;;;;;;;15.28;46.15;96574.63;4956423;28;20037;-81
2022/10/06 09:51:07;;;;;;;5.10;1.92;;;;;;;15.32;47.26;96577.81;4956333;28;20026;-80
2022/10/06 09:53:33;;;;;;;5.47;2.33;;;;;;;15.55;46.95;96574.28;4972755;28;20030;-81
2022/10/06 09:55:59;;;;;;;8.60;3.00;;;;;;;15.59;46.63;96578.31;4971970;28;20080;-80
2022/10/06 09:58:32;;;;;;;8.88;3.10;;;;;;;15.55;46.49;96572.44;4956872;28;20418;-81
2022/10/06 10:01:02;;;;;;;4.88;2.70;;;;;;;15.86;47.41;96573.38;4957077;28;20018;-81
2022/10/06 10:03:50;;;;;;;4.55;2.70;;;;;;;16.21;44.89;96564.78;4956779;28;20069;-82
2022/10/06 10:06:26;;;;;;;4.15;2.35;;;;;;;16.49;44.12;96563.31;4958222;28;20066;-81
2022/10/06 10:09:18;;;;;;;4.97;2.40;;;;;;;16.55;45.48;96557.16;4972446;28;20034;-80
2022/10/06 10:14:35;;;;;;;4.35;2.67;;;;;;;16.79;44.95;96547.88;4961060;28;20036;-82
2022/10/06 10:17:09;;;;;;;5.20;2.90;;;;;;;16.88;44.52;96545.06;4972219;28;20041;-82
2022/10/06 10:19:36;;;;;;;6.10;2.85;;;;;;;16.87;43.25;96546.09;4957016;28;20120;-82
2022/10/06 10:22:02;;;;;;;4.18;2.90;;;;;;;16.92;45.01;96549.91;4955287;28;20041;-79
2022/10/06 10:24:38;;;;;;;6.63;2.85;;;;;;;17.03;43.68;96542.31;4940437;28;20034;-81
2022/10/06 10:27:13;;;;;;;3.58;2.42;;;;;;;17.03;47.02;96545.88;4956782;28;20105;-83
2022/10/06 10:29:48;;;;;;;7.80;2.60;;;;;;;16.97;44.55;96540.38;4956461;28;20026;-82
2022/10/06 10:32:25;;;;;;;6.85;2.63;;;;;;;16.89;43.21;96539.47;4972467;28;20066;-82
2022/10/06 10:35:09;;;;;;;4.57;2.30;;;;;;;17.14;44.39;96532.88;4971406;28;20203;-83
2022/10/06 10:37:55;;;;;;;4.13;2.40;;;;;;;17.28;44.24;96531.16;4989366;28;20081;-82
2022/10/06 10:40:23;;;;;;;5.13;3.50;;;;;;;17.37;44.92;96526.44;4971775;28;20041;-81
2022/10/06 10:43:07;;;;;;;6.22;2.72;;;;;;;17.32;43.48;96524.31;4971698;28;20045;-82
2022/10/06 10:45:34;;;;;;;5.03;2.30;;;;;;;17.33;44.09;96520.56;4972203;28;20039;-82
2022/10/06 10:48:00;;;;;;;3.72;1.85;;;;;;;17.42;44.74;96514.00;4971479;28;20030;-82
2022/10/06 10:50:32;;;;;;;6.45;2.38;;;;;;;17.57;43.44;96512.22;4956925;28;20031;-82
2022/10/06 10:53:01;;;;;;;5.53;2.30;;;;;;;17.26;43.17;96515.09;4971448;28;20050;-82
2022/10/06 10:55:28;;;;;;;5.10;2.47;;;;;;;17.38;42.80;96511.84;4956144;28;20026;-82
2022/10/06 10:57:56;;;;;;;3.80;1.73;;;;;;;17.75;41.07;96506.34;4971162;28;20117;-82
2022/10/06 11:00:24;;;;;;;4.35;1.70;;;;;;;17.98;42.94;96507.94;4955422;28;20072;-82
2022/10/06 11:02:51;;;;;;;3.95;2.00;;;;;;;18.02;39.69;96491.06;4940774;28;20046;-82
2022/10/06 11:05:34;;;;;;;2.42;1.63;;;;;;;18.08;39.10;96494.03;4970892;28;20080;-82
2022/10/06 11:08:21;;;;;;;6.55;1.98;;;;;;;18.09;38.96;96491.13;4971883;28;20090;-82
2022/10/06 11:10:49;;;;;;;3.03;1.92;;;;;;;18.24;39.57;96482.06;4973901;28;20038;-82
2022/10/06 11:13:17;;;;;;;4.00;1.77;;;;;;;18.40;42.28;96484.44;4955390;28;20169;-81
2022/10/06 11:15:58;;;;;;;4.95;1.65;;;;;;;18.35;38.34;96477.94;4989052;28;20054;-82
2022/10/06 11:18:56;;;;;;;3.97;1.67;;;;;;;18.45;40.08;96474.84;4988121;28;20072;-81
2022/10/06 11:21:21;;;;;;;9.18;2.22;;;;;;;18.58;37.84;96474.91;4988781;28;20031;-82
2022/10/06 11:23:53;;;;;;;3.88;1.73;;;;;;;18.60;37.81;96475.56;4988213;28;20022;-82
2022/10/06 11:26:55;;;;;;;6.33;2.03;;;;;;;18.82;36.55;96466.41;4988351;28;20409;-82
2022/10/06 11:29:39;;;;;;;5.32;1.85;;;;;;;18.84;36.74;96467.91;4988744;28;20272;-81
2022/10/06 11:32:08;;;;;;;5.55;1.65;;;;;;;18.93;36.33;96454.13;4970131;28;20523;-81
2022/10/06 11:34:33;;;;;;;3.92;1.70;;;;;;;18.94;36.14;96453.09;4970832;28;20026;-81
2022/10/06 11:37:35;;;;;;;5.90;1.70;;;;;;;19.03;38.43;96452.69;4988234;28;20049;-81
2022/10/06 11:40:23;;;;;;;4.28;1.65;;;;;;;18.99;36.48;96448.69;4889750;28;20049;-81
2022/10/06 11:42:51;;;;;;;6.03;1.75;;;;;;;19.06;36.12;96445.16;4970665;28;20089;-81
2022/10/06 11:45:21;;;;;;;6.07;1.67;;;;;;;19.06;35.61;96443.28;4954427;28;20140;-82
2022/10/06 11:48:05;;;;;;;6.25;1.58;;;;;;;19.22;35.71;96439.38;4954162;28;20029;-81
2022/10/06 11:50:40;;;;;;;3.45;1.70;;;;;;;19.24;38.28;96437.28;4971152;28;20034;-82
2022/10/06 11:53:22;;;;;;;3.38;1.63;;;;;;;19.39;37.27;96434.34;4954566;28;20026;-82
2022/10/06 11:56:06;;;;;;;3.78;1.58;;;;;;;19.61;38.24;96420.53;4956167;28;20474;-81